sensor_id;sensor_type;location;lat;lon;timestamp;P1;durP1;ratioP1;P2;durP2;ratioP2
70138;SDS011;57507;43.056;0.150;2023-01-28T00:00:29;4.63;;;2.50;;
70138;SDS011;57507;43.056;0.150;2023-01-28T00:02:56;4.90;;;2.75;;
70138;SDS011;57507;43.056;0.150;2023-01-28T00:05:22;4.60;;;3.05;;
70138;SDS011;57507;43.056;0.150;2023-01-28T00:07:48;3.88;;;2.42;;
70138;SDS011;57507;43.056;0.150;2023-01-28T00:10:14;6.22;;;3.08;;
70138;SDS011;57507;43.056;0.150;2023-01-28T00:12:41;4.53;;;2.90;;
70138;SDS011;57507;43.056;0.150;2023-01-28T00:15:07;3.58;;;2.65;;
70138;SDS011;57507;43.056;0.150;2023-01-28T00:17:34;3.75;;;2.70;;
70138;SDS011;57507;43.056;0.150;2023-01-28T00:20:01;4.38;;;2.42;;
70138;SDS011;57507;43.056;0.150;2023-01-28T00:22:27;3.85;;;2.90;;
70138;SDS011;57507;43.056;0.150;2023-01-28T00:24:53;7.38;;;4.43;;
70138;SDS011;57507;43.056;0.150;2023-01-28T00:27:19;5.20;;;2.78;;
70138;SDS011;57507;43.056;0.150;2023-01-28T00:29:45;3.63;;;2.35;;
70138;SDS011;57507;43.056;0.150;2023-01-28T00:32:12;6.65;;;3.75;;
70138;SDS011;57507;43.056;0.150;2023-01-28T00:34:38;4.65;;;2.47;;
70138;SDS011;57507;43.056;0.150;2023-01-28T00:37:04;4.47;;;2.53;;
70138;SDS011;57507;43.056;0.150;2023-01-28T00:39:30;5.43;;;2.67;;
70138;SDS011;57507;43.056;0.150;2023-01-28T00:41:56;3.08;;;2.40;;
70138;SDS011;57507;43.056;0.150;2023-01-28T00:44:22;7.28;;;3.60;;
70138;SDS011;57507;43.056;0.150;2023-01-28T00:46:48;7.72;;;3.65;;
70138;SDS011;57507;43.056;0.150;2023-01-28T00:49:14;5.63;;;3.38;;
70138;SDS011;57507;43.056;0.150;2023-01-28T00:51:41;5.75;;;3.13;;
70138;SDS011;57507;43.056;0.150;2023-01-28T00:54:07;5.20;;;3.00;;
70138;SDS011;57507;43.056;0.150;2023-01-28T00:56:33;10.88;;;3.75;;
70138;SDS011;57507;43.056;0.150;2023-01-28T00:59:01;5.45;;;2.33;;
70138;SDS011;57507;43.056;0.150;2023-01-28T01:01:27;7.25;;;3.20;;
70138;SDS011;57507;43.056;0.150;2023-01-28T01:03:54;4.43;;;2.42;;
70138;SDS011;57507;43.056;0.150;2023-01-28T01:06:27;6.28;;;3.22;;
70138;SDS011;57507;43.056;0.150;2023-01-28T01:08:53;5.85;;;3.10;;
70138;SDS011;57507;43.056;0.150;2023-01-28T01:11:19;6.93;;;2.47;;
70138;SDS011;57507;43.056;0.150;2023-01-28T01:13:56;7.05;;;2.97;;
70138;SDS011;57507;43.056;0.150;2023-01-28T01:16:23;6.47;;;2.72;;
70138;SDS011;57507;43.056;0.150;2023-01-28T01:18:50;7.00;;;2.53;;
70138;SDS011;57507;43.056;0.150;2023-01-28T01:21:17;5.07;;;2.40;;
70138;SDS011;57507;43.056;0.150;2023-01-28T01:23:44;4.78;;;3.00;;
70138;SDS011;57507;43.056;0.150;2023-01-28T01:26:10;4.05;;;2.97;;
70138;SDS011;57507;43.056;0.150;2023-01-28T01:28:37;4.55;;;2.67;;
70138;SDS011;57507;43.056;0.150;2023-01-28T01:31:04;2.88;;;2.28;;
70138;SDS011;57507;43.056;0.150;2023-01-28T01:33:31;5.35;;;2.67;;
70138;SDS011;57507;43.056;0.150;2023-01-28T01:35:57;6.35;;;3.20;;
70138;SDS011;57507;43.056;0.150;2023-01-28T01:38:24;3.75;;;2.38;;
70138;SDS011;57507;43.056;0.150;2023-01-28T01:40:50;5.00;;;2.80;;
70138;SDS011;57507;43.056;0.150;2023-01-28T01:43:17;3.50;;;2.30;;
70138;SDS011;57507;43.056;0.150;2023-01-28T01:45:43;4.65;;;2.33;;
70138;SDS011;57507;43.056;0.150;2023-01-28T01:48:25;3.72;;;2.17;;
70138;SDS011;57507;43.056;0.150;2023-01-28T01:50:56;5.55;;;2.80;;
70138;SDS011;57507;43.056;0.150;2023-01-28T01:53:23;4.78;;;2.38;;
70138;SDS011;57507;43.056;0.150;2023-01-28T01:55:49;4.78;;;2.33;;
70138;SDS011;57507;43.056;0.150;2023-01-28T01:58:18;5.53;;;2.70;;
70138;SDS011;57507;43.056;0.150;2023-01-28T02:00:44;3.22;;;2.40;;
70138;SDS011;57507;43.056;0.150;2023-01-28T02:03:11;2.40;;;1.85;;
70138;SDS011;57507;43.056;0.150;2023-01-28T02:05:37;5.45;;;2.20;;
70138;SDS011;57507;43.056;0.150;2023-01-28T02:08:04;5.60;;;3.20;;
70138;SDS011;57507;43.056;0.150;2023-01-28T02:10:45;4.10;;;2.47;;
70138;SDS011;57507;43.056;0.150;2023-01-28T02:13:14;5.65;;;2.53;;
70138;SDS011;57507;43.056;0.150;2023-01-28T02:15:41;3.38;;;2.47;;
70138;SDS011;57507;43.056;0.150;2023-01-28T02:18:08;3.97;;;2.22;;
70138;SDS011;57507;43.056;0.150;2023-01-28T02:25:52;3.80;;;2.38;;
70138;SDS011;57507;43.056;0.150;2023-01-28T02:28:54;3.05;;;2.17;;
70138;SDS011;57507;43.056;0.150;2023-01-28T02:34:01;5.03;;;2.22;;
70138;SDS011;57507;43.056;0.150;2023-01-28T02:36:46;3.50;;;2.45;;
70138;SDS011;57507;43.056;0.150;2023-01-28T02:39:22;3.42;;;1.90;;
70138;SDS011;57507;43.056;0.150;2023-01-28T02:41:51;3.78;;;3.03;;
70138;SDS011;57507;43.056;0.150;2023-01-28T02:44:18;3.55;;;2.50;;
70138;SDS011;57507;43.056;0.150;2023-01-28T02:46:44;3.75;;;1.85;;
70138;SDS011;57507;43.056;0.150;2023-01-28T02:49:38;5.00;;;2.88;;
70138;SDS011;57507;43.056;0.150;2023-01-28T02:57:15;3.90;;;2.67;;
70138;SDS011;57507;43.056;0.150;2023-01-28T03:02:22;5.03;;;3.28;;
70138;SDS011;57507;43.056;0.150;2023-01-28T03:05:01;3.65;;;2.28;;
70138;SDS011;57507;43.056;0.150;2023-01-28T03:07:28;4.55;;;3.55;;
70138;SDS011;57507;43.056;0.150;2023-01-28T03:09:55;4.70;;;3.47;;
70138;SDS011;57507;43.056;0.150;2023-01-28T03:12:24;6.47;;;3.95;;
70138;SDS011;57507;43.056;0.150;2023-01-28T03:15:12;4.50;;;3.10;;
70138;SDS011;57507;43.056;0.150;2023-01-28T03:18:19;3.47;;;2.35;;
70138;SDS011;57507;43.056;0.150;2023-01-28T03:23:48;3.13;;;2.30;;
70138;SDS011;57507;43.056;0.150;2023-01-28T03:26:41;8.93;;;3.72;;
70138;SDS011;57507;43.056;0.150;2023-01-28T03:29:28;6.35;;;3.63;;
70138;SDS011;57507;43.056;0.150;2023-01-28T03:32:14;5.20;;;2.92;;
70138;SDS011;57507;43.056;0.150;2023-01-28T03:34:59;2.83;;;2.53;;
70138;SDS011;57507;43.056;0.150;2023-01-28T03:37:44;3.40;;;2.80;;
70138;SDS011;57507;43.056;0.150;2023-01-28T03:40:11;4.50;;;2.97;;
70138;SDS011;57507;43.056;0.150;2023-01-28T03:42:37;5.90;;;2.88;;
70138;SDS011;57507;43.056;0.150;2023-01-28T03:45:03;6.75;;;3.53;;
70138;SDS011;57507;43.056;0.150;2023-01-28T03:47:32;4.38;;;2.55;;
70138;SDS011;57507;43.056;0.150;2023-01-28T03:49:58;3.53;;;2.40;;
70138;SDS011;57507;43.056;0.150;2023-01-28T03:52:26;4.53;;;2.92;;
70138;SDS011;57507;43.056;0.150;2023-01-28T03:54:52;4.15;;;2.75;;
70138;SDS011;57507;43.056;0.150;2023-01-28T03:57:20;4.60;;;3.25;;
70138;SDS011;57507;43.056;0.150;2023-01-28T03:59:46;4.85;;;3.30;;
70138;SDS011;57507;43.056;0.150;2023-01-28T04:02:14;5.22;;;3.22;;
70138;SDS011;57507;43.056;0.150;2023-01-28T04:04:40;4.78;;;3.17;;
70138;SDS011;57507;43.056;0.150;2023-01-28T04:07:07;4.20;;;2.38;;
70138;SDS011;57507;43.056;0.150;2023-01-28T04:09:35;4.93;;;3.15;;
70138;SDS011;57507;43.056;0.150;2023-01-28T04:12:01;4.80;;;3.50;;
70138;SDS011;57507;43.056;0.150;2023-01-28T04:14:27;4.28;;;2.72;;
70138;SDS011;57507;43.056;0.150;2023-01-28T04:16:54;4.72;;;3.03;;
70138;SDS011;57507;43.056;0.150;2023-01-28T04:19:20;3.97;;;2.90;;
70138;SDS011;57507;43.056;0.150;2023-01-28T04:21:46;4.97;;;3.10;;
70138;SDS011;57507;43.056;0.150;2023-01-28T04:24:13;3.70;;;2.10;;
70138;SDS011;57507;43.056;0.150;2023-01-28T04:26:39;5.38;;;3.13;;
70138;SDS011;57507;43.056;0.150;2023-01-28T04:29:05;6.07;;;3.88;;
70138;SDS011;57507;43.056;0.150;2023-01-28T04:31:31;4.82;;;2.90;;
70138;SDS011;57507;43.056;0.150;2023-01-28T04:33:57;6.78;;;4.03;;
70138;SDS011;57507;43.056;0.150;2023-01-28T04:36:24;6.22;;;2.92;;
70138;SDS011;57507;43.056;0.150;2023-01-28T04:38:50;5.13;;;3.38;;
70138;SDS011;57507;43.056;0.150;2023-01-28T04:41:16;4.47;;;3.08;;
70138;SDS011;57507;43.056;0.150;2023-01-28T04:43:42;5.15;;;3.20;;
70138;SDS011;57507;43.056;0.150;2023-01-28T04:46:08;4.00;;;3.05;;
70138;SDS011;57507;43.056;0.150;2023-01-28T04:48:34;6.03;;;3.92;;
70138;SDS011;57507;43.056;0.150;2023-01-28T04:51:01;4.00;;;2.95;;
70138;SDS011;57507;43.056;0.150;2023-01-28T04:53:27;6.93;;;3.88;;
70138;SDS011;57507;43.056;0.150;2023-01-28T04:55:53;4.13;;;2.97;;
70138;SDS011;57507;43.056;0.150;2023-01-28T04:58:19;5.43;;;3.10;;
70138;SDS011;57507;43.056;0.150;2023-01-28T05:00:45;4.93;;;3.65;;
70138;SDS011;57507;43.056;0.150;2023-01-28T05:03:11;4.28;;;3.03;;
70138;SDS011;57507;43.056;0.150;2023-01-28T05:05:37;4.18;;;3.10;;
70138;SDS011;57507;43.056;0.150;2023-01-28T05:08:03;4.75;;;3.67;;
70138;SDS011;57507;43.056;0.150;2023-01-28T05:10:29;4.65;;;3.35;;
70138;SDS011;57507;43.056;0.150;2023-01-28T05:12:55;4.38;;;3.00;;
70138;SDS011;57507;43.056;0.150;2023-01-28T05:15:21;4.38;;;3.15;;
70138;SDS011;57507;43.056;0.150;2023-01-28T05:17:47;5.28;;;3.90;;
70138;SDS011;57507;43.056;0.150;2023-01-28T05:20:13;6.32;;;3.28;;
70138;SDS011;57507;43.056;0.150;2023-01-28T05:22:40;4.82;;;3.13;;
70138;SDS011;57507;43.056;0.150;2023-01-28T05:25:06;3.60;;;3.00;;
70138;SDS011;57507;43.056;0.150;2023-01-28T05:27:32;5.05;;;3.30;;
70138;SDS011;57507;43.056;0.150;2023-01-28T05:29:58;5.00;;;3.42;;
70138;SDS011;57507;43.056;0.150;2023-01-28T05:32:25;3.88;;;2.50;;
70138;SDS011;57507;43.056;0.150;2023-01-28T05:34:51;7.97;;;4.43;;
70138;SDS011;57507;43.056;0.150;2023-01-28T05:37:17;4.60;;;2.85;;
70138;SDS011;57507;43.056;0.150;2023-01-28T05:39:43;6.80;;;4.13;;
70138;SDS011;57507;43.056;0.150;2023-01-28T05:42:09;6.78;;;3.28;;
70138;SDS011;57507;43.056;0.150;2023-01-28T05:44:35;7.50;;;3.50;;
70138;SDS011;57507;43.056;0.150;2023-01-28T05:47:02;8.45;;;4.22;;
70138;SDS011;57507;43.056;0.150;2023-01-28T05:49:28;9.70;;;3.65;;
70138;SDS011;57507;43.056;0.150;2023-01-28T05:51:54;5.15;;;3.85;;
70138;SDS011;57507;43.056;0.150;2023-01-28T05:54:20;4.97;;;3.45;;
70138;SDS011;57507;43.056;0.150;2023-01-28T05:56:46;8.38;;;4.20;;
70138;SDS011;57507;43.056;0.150;2023-01-28T05:59:12;3.92;;;2.75;;
70138;SDS011;57507;43.056;0.150;2023-01-28T06:01:38;3.72;;;2.80;;
70138;SDS011;57507;43.056;0.150;2023-01-28T06:04:05;8.05;;;5.07;;
70138;SDS011;57507;43.056;0.150;2023-01-28T06:06:31;9.52;;;5.43;;
70138;SDS011;57507;43.056;0.150;2023-01-28T06:08:57;6.60;;;4.20;;
70138;SDS011;57507;43.056;0.150;2023-01-28T06:11:23;6.70;;;3.92;;
70138;SDS011;57507;43.056;0.150;2023-01-28T06:13:49;7.28;;;4.70;;
70138;SDS011;57507;43.056;0.150;2023-01-28T06:16:15;6.10;;;3.88;;
70138;SDS011;57507;43.056;0.150;2023-01-28T06:18:41;5.95;;;3.92;;
70138;SDS011;57507;43.056;0.150;2023-01-28T06:21:08;6.10;;;3.20;;
70138;SDS011;57507;43.056;0.150;2023-01-28T06:23:34;7.03;;;3.42;;
70138;SDS011;57507;43.056;0.150;2023-01-28T06:26:00;7.75;;;4.47;;
70138;SDS011;57507;43.056;0.150;2023-01-28T06:28:26;5.32;;;4.05;;
70138;SDS011;57507;43.056;0.150;2023-01-28T06:30:53;5.60;;;3.33;;
70138;SDS011;57507;43.056;0.150;2023-01-28T06:33:19;5.72;;;3.80;;
70138;SDS011;57507;43.056;0.150;2023-01-28T06:35:45;7.30;;;4.93;;
70138;SDS011;57507;43.056;0.150;2023-01-28T06:38:12;5.70;;;4.68;;
70138;SDS011;57507;43.056;0.150;2023-01-28T06:40:38;4.68;;;3.70;;
70138;SDS011;57507;43.056;0.150;2023-01-28T06:43:04;6.32;;;4.22;;
70138;SDS011;57507;43.056;0.150;2023-01-28T06:45:31;4.72;;;3.42;;
70138;SDS011;57507;43.056;0.150;2023-01-28T06:47:57;5.30;;;3.60;;
70138;SDS011;57507;43.056;0.150;2023-01-28T06:50:23;5.72;;;3.50;;
70138;SDS011;57507;43.056;0.150;2023-01-28T06:52:49;4.93;;;3.10;;
70138;SDS011;57507;43.056;0.150;2023-01-28T06:55:16;5.32;;;3.65;;
70138;SDS011;57507;43.056;0.150;2023-01-28T06:57:42;4.32;;;3.67;;
70138;SDS011;57507;43.056;0.150;2023-01-28T07:00:10;5.00;;;3.42;;
70138;SDS011;57507;43.056;0.150;2023-01-28T07:02:37;6.03;;;4.10;;
70138;SDS011;57507;43.056;0.150;2023-01-28T07:05:03;5.75;;;3.80;;
70138;SDS011;57507;43.056;0.150;2023-01-28T07:07:29;6.95;;;4.18;;
70138;SDS011;57507;43.056;0.150;2023-01-28T07:09:55;7.18;;;4.45;;
70138;SDS011;57507;43.056;0.150;2023-01-28T07:12:21;5.20;;;3.75;;
70138;SDS011;57507;43.056;0.150;2023-01-28T07:14:47;8.32;;;4.35;;
70138;SDS011;57507;43.056;0.150;2023-01-28T07:17:13;8.32;;;6.30;;
70138;SDS011;57507;43.056;0.150;2023-01-28T07:19:39;6.30;;;4.03;;
70138;SDS011;57507;43.056;0.150;2023-01-28T07:22:06;7.78;;;4.60;;
70138;SDS011;57507;43.056;0.150;2023-01-28T07:24:32;5.50;;;4.30;;
70138;SDS011;57507;43.056;0.150;2023-01-28T07:26:58;6.13;;;4.22;;
70138;SDS011;57507;43.056;0.150;2023-01-28T07:29:24;7.68;;;4.95;;
70138;SDS011;57507;43.056;0.150;2023-01-28T07:31:50;8.38;;;5.68;;
70138;SDS011;57507;43.056;0.150;2023-01-28T07:34:17;10.35;;;6.45;;
70138;SDS011;57507;43.056;0.150;2023-01-28T07:36:43;8.48;;;4.95;;
70138;SDS011;57507;43.056;0.150;2023-01-28T07:39:09;9.55;;;6.32;;
70138;SDS011;57507;43.056;0.150;2023-01-28T07:41:35;8.70;;;5.97;;
70138;SDS011;57507;43.056;0.150;2023-01-28T07:44:01;11.98;;;7.38;;
70138;SDS011;57507;43.056;0.150;2023-01-28T07:46:27;7.38;;;4.95;;
70138;SDS011;57507;43.056;0.150;2023-01-28T07:48:53;9.15;;;5.20;;
70138;SDS011;57507;43.056;0.150;2023-01-28T07:51:19;6.85;;;5.03;;
70138;SDS011;57507;43.056;0.150;2023-01-28T07:53:45;9.90;;;6.32;;
70138;SDS011;57507;43.056;0.150;2023-01-28T07:56:11;7.70;;;4.82;;
70138;SDS011;57507;43.056;0.150;2023-01-28T07:58:37;7.95;;;4.80;;
70138;SDS011;57507;43.056;0.150;2023-01-28T08:01:03;9.70;;;6.20;;
70138;SDS011;57507;43.056;0.150;2023-01-28T08:03:29;7.78;;;5.47;;
70138;SDS011;57507;43.056;0.150;2023-01-28T08:05:55;8.13;;;5.45;;
70138;SDS011;57507;43.056;0.150;2023-01-28T08:08:22;8.10;;;5.10;;
70138;SDS011;57507;43.056;0.150;2023-01-28T08:10:48;6.60;;;5.53;;
70138;SDS011;57507;43.056;0.150;2023-01-28T08:13:15;5.00;;;3.50;;
70138;SDS011;57507;43.056;0.150;2023-01-28T08:15:41;7.50;;;5.43;;
70138;SDS011;57507;43.056;0.150;2023-01-28T08:18:08;6.13;;;4.38;;
70138;SDS011;57507;43.056;0.150;2023-01-28T08:20:34;9.95;;;6.15;;
70138;SDS011;57507;43.056;0.150;2023-01-28T08:23:18;7.32;;;5.30;;
70138;SDS011;57507;43.056;0.150;2023-01-28T08:25:45;9.32;;;5.07;;
70138;SDS011;57507;43.056;0.150;2023-01-28T08:28:12;6.65;;;4.78;;
70138;SDS011;57507;43.056;0.150;2023-01-28T08:30:38;7.03;;;4.68;;
70138;SDS011;57507;43.056;0.150;2023-01-28T08:33:09;6.72;;;4.60;;
70138;SDS011;57507;43.056;0.150;2023-01-28T08:35:35;8.75;;;4.55;;
70138;SDS011;57507;43.056;0.150;2023-01-28T08:38:02;7.35;;;4.60;;
70138;SDS011;57507;43.056;0.150;2023-01-28T08:40:29;6.45;;;4.60;;
70138;SDS011;57507;43.056;0.150;2023-01-28T08:42:55;6.07;;;4.07;;
70138;SDS011;57507;43.056;0.150;2023-01-28T08:45:21;6.90;;;4.97;;
70138;SDS011;57507;43.056;0.150;2023-01-28T08:47:59;6.18;;;4.85;;
70138;SDS011;57507;43.056;0.150;2023-01-28T08:50:26;7.00;;;5.32;;
70138;SDS011;57507;43.056;0.150;2023-01-28T08:52:54;6.53;;;4.22;;
70138;SDS011;57507;43.056;0.150;2023-01-28T08:55:20;6.80;;;4.30;;
70138;SDS011;57507;43.056;0.150;2023-01-28T08:57:46;6.07;;;3.72;;
70138;SDS011;57507;43.056;0.150;2023-01-28T09:00:12;7.35;;;4.80;;
70138;SDS011;57507;43.056;0.150;2023-01-28T09:02:38;6.53;;;4.25;;
70138;SDS011;57507;43.056;0.150;2023-01-28T09:05:05;8.50;;;4.63;;
70138;SDS011;57507;43.056;0.150;2023-01-28T09:07:31;5.93;;;4.00;;
70138;SDS011;57507;43.056;0.150;2023-01-28T09:09:57;6.90;;;4.22;;
70138;SDS011;57507;43.056;0.150;2023-01-28T09:12:23;7.93;;;4.78;;
70138;SDS011;57507;43.056;0.150;2023-01-28T09:14:49;6.68;;;4.05;;
70138;SDS011;57507;43.056;0.150;2023-01-28T09:17:16;5.68;;;3.50;;
70138;SDS011;57507;43.056;0.150;2023-01-28T09:19:42;5.13;;;3.80;;
70138;SDS011;57507;43.056;0.150;2023-01-28T09:22:09;4.63;;;3.63;;
70138;SDS011;57507;43.056;0.150;2023-01-28T09:24:35;5.90;;;4.15;;
70138;SDS011;57507;43.056;0.150;2023-01-28T09:27:01;5.50;;;4.10;;
70138;SDS011;57507;43.056;0.150;2023-01-28T09:29:28;5.75;;;4.45;;
70138;SDS011;57507;43.056;0.150;2023-01-28T09:31:54;6.05;;;3.90;;
70138;SDS011;57507;43.056;0.150;2023-01-28T09:34:20;5.90;;;3.58;;
70138;SDS011;57507;43.056;0.150;2023-01-28T09:36:46;7.47;;;3.80;;
70138;SDS011;57507;43.056;0.150;2023-01-28T09:39:12;5.70;;;4.20;;
70138;SDS011;57507;43.056;0.150;2023-01-28T09:46:39;6.72;;;4.45;;
70138;SDS011;57507;43.056;0.150;2023-01-28T09:52:14;5.20;;;3.97;;
70138;SDS011;57507;43.056;0.150;2023-01-28T09:54:48;5.68;;;3.85;;
70138;SDS011;57507;43.056;0.150;2023-01-28T09:57:24;4.82;;;3.72;;
70138;SDS011;57507;43.056;0.150;2023-01-28T09:59:51;5.82;;;3.97;;
70138;SDS011;57507;43.056;0.150;2023-01-28T10:02:23;5.18;;;3.80;;
70138;SDS011;57507;43.056;0.150;2023-01-28T10:07:20;4.85;;;3.58;;
70138;SDS011;57507;43.056;0.150;2023-01-28T10:17:16;5.70;;;3.50;;
70138;SDS011;57507;43.056;0.150;2023-01-28T10:19:46;5.03;;;3.58;;
70138;SDS011;57507;43.056;0.150;2023-01-28T10:22:19;5.50;;;3.60;;
70138;SDS011;57507;43.056;0.150;2023-01-28T10:24:48;5.00;;;3.90;;
70138;SDS011;57507;43.056;0.150;2023-01-28T10:27:17;6.32;;;3.85;;
70138;SDS011;57507;43.056;0.150;2023-01-28T10:29:44;6.05;;;4.30;;
70138;SDS011;57507;43.056;0.150;2023-01-28T10:32:30;5.47;;;3.72;;
70138;SDS011;57507;43.056;0.150;2023-01-28T10:34:59;6.22;;;3.75;;
70138;SDS011;57507;43.056;0.150;2023-01-28T10:37:30;5.72;;;4.15;;
70138;SDS011;57507;43.056;0.150;2023-01-28T10:39:57;4.75;;;3.38;;
70138;SDS011;57507;43.056;0.150;2023-01-28T10:42:32;4.85;;;3.28;;
70138;SDS011;57507;43.056;0.150;2023-01-28T10:45:02;4.15;;;2.90;;
70138;SDS011;57507;43.056;0.150;2023-01-28T10:47:32;4.57;;;3.20;;
70138;SDS011;57507;43.056;0.150;2023-01-28T10:50:00;4.93;;;3.10;;
70138;SDS011;57507;43.056;0.150;2023-01-28T10:52:26;5.55;;;3.55;;
70138;SDS011;57507;43.056;0.150;2023-01-28T10:55:01;5.45;;;4.07;;
70138;SDS011;57507;43.056;0.150;2023-01-28T10:57:28;4.38;;;3.70;;
70138;SDS011;57507;43.056;0.150;2023-01-28T10:59:54;4.95;;;3.75;;
70138;SDS011;57507;43.056;0.150;2023-01-28T11:02:25;5.10;;;3.78;;
70138;SDS011;57507;43.056;0.150;2023-01-28T11:05:06;5.43;;;3.80;;
70138;SDS011;57507;43.056;0.150;2023-01-28T11:07:40;4.43;;;3.65;;
70138;SDS011;57507;43.056;0.150;2023-01-28T11:12:55;5.90;;;4.30;;
70138;SDS011;57507;43.056;0.150;2023-01-28T11:15:21;6.22;;;4.40;;
70138;SDS011;57507;43.056;0.150;2023-01-28T11:17:49;6.25;;;3.75;;
70138;SDS011;57507;43.056;0.150;2023-01-28T11:20:21;7.72;;;4.40;;
70138;SDS011;57507;43.056;0.150;2023-01-28T11:22:47;7.32;;;4.57;;
70138;SDS011;57507;43.056;0.150;2023-01-28T11:25:18;6.15;;;4.75;;
70138;SDS011;57507;43.056;0.150;2023-01-28T11:27:46;5.65;;;3.92;;
70138;SDS011;57507;43.056;0.150;2023-01-28T11:30:20;7.10;;;5.18;;
70138;SDS011;57507;43.056;0.150;2023-01-28T11:32:53;7.75;;;5.57;;
70138;SDS011;57507;43.056;0.150;2023-01-28T11:35:23;6.67;;;4.93;;
70138;SDS011;57507;43.056;0.150;2023-01-28T11:37:51;6.22;;;4.30;;
70138;SDS011;57507;43.056;0.150;2023-01-28T11:40:18;5.18;;;4.03;;
70138;SDS011;57507;43.056;0.150;2023-01-28T11:42:51;8.35;;;5.68;;
70138;SDS011;57507;43.056;0.150;2023-01-28T11:45:30;7.63;;;4.75;;
70138;SDS011;57507;43.056;0.150;2023-01-28T11:48:18;6.65;;;4.70;;
70138;SDS011;57507;43.056;0.150;2023-01-28T11:50:53;8.65;;;6.55;;
70138;SDS011;57507;43.056;0.150;2023-01-28T11:56:06;9.75;;;6.22;;
70138;SDS011;57507;43.056;0.150;2023-01-28T12:03:46;7.30;;;4.82;;
70138;SDS011;57507;43.056;0.150;2023-01-28T12:24:22;6.82;;;5.38;;
70138;SDS011;57507;43.056;0.150;2023-01-28T12:27:03;6.78;;;4.78;;
70138;SDS011;57507;43.056;0.150;2023-01-28T12:40:30;7.20;;;4.93;;
70138;SDS011;57507;43.056;0.150;2023-01-28T12:42:53;6.10;;;4.80;;
70138;SDS011;57507;43.056;0.150;2023-01-28T12:45:26;6.35;;;4.65;;
70138;SDS011;57507;43.056;0.150;2023-01-28T12:48:01;7.10;;;4.97;;
70138;SDS011;57507;43.056;0.150;2023-01-28T12:50:32;6.07;;;4.85;;
70138;SDS011;57507;43.056;0.150;2023-01-28T12:53:23;5.82;;;4.20;;
70138;SDS011;57507;43.056;0.150;2023-01-28T12:55:53;6.78;;;5.32;;
70138;SDS011;57507;43.056;0.150;2023-01-28T12:58:22;5.95;;;4.00;;
70138;SDS011;57507;43.056;0.150;2023-01-28T13:00:50;6.28;;;4.53;;
70138;SDS011;57507;43.056;0.150;2023-01-28T13:03:39;5.72;;;4.32;;
70138;SDS011;57507;43.056;0.150;2023-01-28T13:06:11;5.20;;;4.28;;
70138;SDS011;57507;43.056;0.150;2023-01-28T13:08:39;6.15;;;4.70;;
70138;SDS011;57507;43.056;0.150;2023-01-28T13:11:05;10.52;;;7.18;;
70138;SDS011;57507;43.056;0.150;2023-01-28T13:13:35;4.35;;;3.78;;
70138;SDS011;57507;43.056;0.150;2023-01-28T13:16:02;6.70;;;4.43;;
70138;SDS011;57507;43.056;0.150;2023-01-28T13:21:15;8.38;;;5.88;;
70138;SDS011;57507;43.056;0.150;2023-01-28T13:26:54;5.05;;;3.78;;
70138;SDS011;57507;43.056;0.150;2023-01-28T13:29:05;4.72;;;4.00;;
70138;SDS011;57507;43.056;0.150;2023-01-28T13:31:35;5.50;;;3.95;;
70138;SDS011;57507;43.056;0.150;2023-01-28T13:34:02;5.20;;;4.20;;
70138;SDS011;57507;43.056;0.150;2023-01-28T13:36:42;6.88;;;5.10;;
70138;SDS011;57507;43.056;0.150;2023-01-28T13:41:50;7.35;;;4.40;;
70138;SDS011;57507;43.056;0.150;2023-01-28T13:46:49;5.63;;;4.28;;
70138;SDS011;57507;43.056;0.150;2023-01-28T13:49:17;5.15;;;4.65;;
70138;SDS011;57507;43.056;0.150;2023-01-28T13:52:00;7.70;;;4.32;;
70138;SDS011;57507;43.056;0.150;2023-01-28T13:54:29;5.47;;;4.00;;
70138;SDS011;57507;43.056;0.150;2023-01-28T14:07:24;6.53;;;4.78;;
70138;SDS011;57507;43.056;0.150;2023-01-28T14:19:55;7.53;;;5.47;;
70138;SDS011;57507;43.056;0.150;2023-01-28T14:22:22;10.65;;;6.78;;
70138;SDS011;57507;43.056;0.150;2023-01-28T14:24:48;8.85;;;6.07;;
70138;SDS011;57507;43.056;0.150;2023-01-28T14:27:21;6.70;;;5.32;;
70138;SDS011;57507;43.056;0.150;2023-01-28T14:29:51;6.97;;;5.72;;
70138;SDS011;57507;43.056;0.150;2023-01-28T14:34:50;8.38;;;5.47;;
70138;SDS011;57507;43.056;0.150;2023-01-28T14:37:18;7.30;;;5.88;;
70138;SDS011;57507;43.056;0.150;2023-01-28T14:39:47;8.30;;;4.80;;
70138;SDS011;57507;43.056;0.150;2023-01-28T14:42:18;8.18;;;5.32;;
70138;SDS011;57507;43.056;0.150;2023-01-28T14:44:45;9.25;;;5.95;;
70138;SDS011;57507;43.056;0.150;2023-01-28T14:57:57;5.90;;;4.88;;
70138;SDS011;57507;43.056;0.150;2023-01-28T15:00:27;9.10;;;7.15;;
70138;SDS011;57507;43.056;0.150;2023-01-28T15:02:53;7.85;;;5.18;;
70138;SDS011;57507;43.056;0.150;2023-01-28T15:05:24;9.52;;;5.65;;
70138;SDS011;57507;43.056;0.150;2023-01-28T15:07:50;7.78;;;5.35;;
70138;SDS011;57507;43.056;0.150;2023-01-28T15:10:20;19.15;;;12.05;;
70138;SDS011;57507;43.056;0.150;2023-01-28T15:12:50;8.07;;;5.70;;
70138;SDS011;57507;43.056;0.150;2023-01-28T15:17:49;7.15;;;5.63;;
70138;SDS011;57507;43.056;0.150;2023-01-28T15:20:17;9.43;;;6.25;;
70138;SDS011;57507;43.056;0.150;2023-01-28T15:22:44;8.63;;;6.82;;
70138;SDS011;57507;43.056;0.150;2023-01-28T15:25:17;8.23;;;5.68;;
70138;SDS011;57507;43.056;0.150;2023-01-28T15:27:44;7.83;;;5.53;;
70138;SDS011;57507;43.056;0.150;2023-01-28T15:30:23;6.93;;;5.05;;
70138;SDS011;57507;43.056;0.150;2023-01-28T15:33:23;9.80;;;7.07;;
70138;SDS011;57507;43.056;0.150;2023-01-28T15:36:00;8.88;;;6.53;;
70138;SDS011;57507;43.056;0.150;2023-01-28T15:38:27;9.15;;;6.57;;
70138;SDS011;57507;43.056;0.150;2023-01-28T15:40:54;8.23;;;5.82;;
70138;SDS011;57507;43.056;0.150;2023-01-28T15:43:22;9.85;;;5.93;;
70138;SDS011;57507;43.056;0.150;2023-01-28T15:45:51;8.57;;;6.65;;
70138;SDS011;57507;43.056;0.150;2023-01-28T15:48:19;7.65;;;6.28;;
70138;SDS011;57507;43.056;0.150;2023-01-28T15:50:46;7.40;;;5.25;;
70138;SDS011;57507;43.056;0.150;2023-01-28T15:53:12;8.15;;;6.22;;
70138;SDS011;57507;43.056;0.150;2023-01-28T15:55:40;7.93;;;5.88;;
70138;SDS011;57507;43.056;0.150;2023-01-28T16:00:43;10.20;;;6.35;;
70138;SDS011;57507;43.056;0.150;2023-01-28T16:03:09;6.72;;;5.63;;
70138;SDS011;57507;43.056;0.150;2023-01-28T16:05:36;10.95;;;7.03;;
70138;SDS011;57507;43.056;0.150;2023-01-28T16:08:06;7.35;;;5.53;;
70138;SDS011;57507;43.056;0.150;2023-01-28T16:10:33;7.88;;;5.80;;
70138;SDS011;57507;43.056;0.150;2023-01-28T16:13:02;6.82;;;5.18;;
70138;SDS011;57507;43.056;0.150;2023-01-28T16:15:30;7.55;;;5.78;;
70138;SDS011;57507;43.056;0.150;2023-01-28T16:17:56;8.23;;;5.75;;
70138;SDS011;57507;43.056;0.150;2023-01-28T16:20:24;8.65;;;6.05;;
70138;SDS011;57507;43.056;0.150;2023-01-28T16:22:50;7.97;;;6.30;;
70138;SDS011;57507;43.056;0.150;2023-01-28T16:27:46;8.05;;;5.95;;
70138;SDS011;57507;43.056;0.150;2023-01-28T16:30:12;13.20;;;7.50;;
70138;SDS011;57507;43.056;0.150;2023-01-28T16:32:38;16.73;;;8.88;;
70138;SDS011;57507;43.056;0.150;2023-01-28T16:35:16;13.98;;;8.55;;
70138;SDS011;57507;43.056;0.150;2023-01-28T16:37:43;14.15;;;8.05;;
70138;SDS011;57507;43.056;0.150;2023-01-28T16:40:10;12.65;;;7.15;;
70138;SDS011;57507;43.056;0.150;2023-01-28T16:42:36;20.50;;;10.50;;
70138;SDS011;57507;43.056;0.150;2023-01-28T16:45:02;14.38;;;8.68;;
70138;SDS011;57507;43.056;0.150;2023-01-28T16:47:29;11.60;;;7.57;;
70138;SDS011;57507;43.056;0.150;2023-01-28T16:49:55;10.27;;;6.57;;
70138;SDS011;57507;43.056;0.150;2023-01-28T16:52:21;16.42;;;9.32;;
70138;SDS011;57507;43.056;0.150;2023-01-28T16:54:47;10.45;;;6.28;;
70138;SDS011;57507;43.056;0.150;2023-01-28T16:57:13;13.73;;;7.75;;
70138;SDS011;57507;43.056;0.150;2023-01-28T16:59:41;11.52;;;7.05;;
70138;SDS011;57507;43.056;0.150;2023-01-28T17:02:09;10.52;;;6.88;;
70138;SDS011;57507;43.056;0.150;2023-01-28T17:04:36;13.80;;;8.30;;